sensor_id;sensor_type;location;lat;lon;timestamp;P1;durP1;ratioP1;P2;durP2;ratioP2
8476;SDS011;4275;42.854;23.222;2022-07-22T00:01:54;21.17;;;19.88;;
8476;SDS011;4275;42.854;23.222;2022-07-22T00:04:21;20.30;;;19.10;;
8476;SDS011;4275;42.854;23.222;2022-07-22T00:06:48;21.17;;;19.88;;
8476;SDS011;4275;42.854;23.222;2022-07-22T00:09:17;20.88;;;19.67;;
8476;SDS011;4275;42.854;23.222;2022-07-22T00:11:44;20.55;;;19.35;;
8476;SDS011;4275;42.854;23.222;2022-07-22T00:14:11;20.98;;;19.70;;
8476;SDS011;4275;42.854;23.222;2022-07-22T00:16:38;19.80;;;18.60;;
8476;SDS011;4275;42.854;23.222;2022-07-22T00:19:06;20.30;;;19.10;;
8476;SDS011;4275;42.854;23.222;2022-07-22T00:21:33;20.30;;;19.10;;
8476;SDS011;4275;42.854;23.222;2022-07-22T00:24:00;20.30;;;19.10;;
8476;SDS011;4275;42.854;23.222;2022-07-22T00:26:28;20.20;;;19.00;;
8476;SDS011;4275;42.854;23.222;2022-07-22T00:28:55;20.25;;;19.05;;
8476;SDS011;4275;42.854;23.222;2022-07-22T00:31:22;20.27;;;19.08;;
8476;SDS011;4275;42.854;23.222;2022-07-22T00:33:50;19.80;;;18.70;;
8476;SDS011;4275;42.854;23.222;2022-07-22T00:36:17;19.20;;;18.10;;
8476;SDS011;4275;42.854;23.222;2022-07-22T00:38:44;19.52;;;18.42;;
8476;SDS011;4275;42.854;23.222;2022-07-22T00:41:11;19.52;;;18.42;;
8476;SDS011;4275;42.854;23.222;2022-07-22T00:43:52;19.33;;;18.23;;
8476;SDS011;4275;42.854;23.222;2022-07-22T00:46:21;19.05;;;17.95;;
8476;SDS011;4275;42.854;23.222;2022-07-22T00:48:48;19.20;;;18.10;;
8476;SDS011;4275;42.854;23.222;2022-07-22T00:51:16;19.00;;;17.90;;
8476;SDS011;4275;42.854;23.222;2022-07-22T00:53:43;18.98;;;17.88;;
8476;SDS011;4275;42.854;23.222;2022-07-22T00:56:11;19.10;;;18.00;;
8476;SDS011;4275;42.854;23.222;2022-07-22T00:58:38;19.13;;;18.02;;
8476;SDS011;4275;42.854;23.222;2022-07-22T01:01:07;19.65;;;18.50;;
8476;SDS011;4275;42.854;23.222;2022-07-22T01:03:34;19.60;;;18.50;;
8476;SDS011;4275;42.854;23.222;2022-07-22T01:06:02;19.48;;;18.38;;
8476;SDS011;4275;42.854;23.222;2022-07-22T01:08:29;19.40;;;18.30;;
8476;SDS011;4275;42.854;23.222;2022-07-22T01:11:05;19.30;;;18.20;;
8476;SDS011;4275;42.854;23.222;2022-07-22T01:13:33;19.10;;;18.00;;
8476;SDS011;4275;42.854;23.222;2022-07-22T01:16:00;19.27;;;18.17;;
8476;SDS011;4275;42.854;23.222;2022-07-22T01:18:28;19.08;;;17.98;;
8476;SDS011;4275;42.854;23.222;2022-07-22T01:20:57;19.13;;;18.02;;
8476;SDS011;4275;42.854;23.222;2022-07-22T01:23:24;20.70;;;19.60;;
8476;SDS011;4275;42.854;23.222;2022-07-22T01:25:52;19.02;;;18.00;;
8476;SDS011;4275;42.854;23.222;2022-07-22T01:28:19;19.20;;;18.10;;
8476;SDS011;4275;42.854;23.222;2022-07-22T01:30:46;20.20;;;19.20;;
8476;SDS011;4275;42.854;23.222;2022-07-22T01:33:15;20.15;;;19.05;;
8476;SDS011;4275;42.854;23.222;2022-07-22T01:35:42;21.30;;;20.20;;
8476;SDS011;4275;42.854;23.222;2022-07-22T01:38:10;20.38;;;19.27;;
8476;SDS011;4275;42.854;23.222;2022-07-22T01:40:38;18.23;;;17.23;;
8476;SDS011;4275;42.854;23.222;2022-07-22T01:43:05;18.95;;;17.95;;
8476;SDS011;4275;42.854;23.222;2022-07-22T01:45:32;19.85;;;18.75;;
8476;SDS011;4275;42.854;23.222;2022-07-22T01:48:00;19.35;;;18.35;;
8476;SDS011;4275;42.854;23.222;2022-07-22T01:50:27;20.05;;;18.95;;
8476;SDS011;4275;42.854;23.222;2022-07-22T01:52:54;19.60;;;18.50;;
8476;SDS011;4275;42.854;23.222;2022-07-22T01:55:23;19.17;;;18.17;;
8476;SDS011;4275;42.854;23.222;2022-07-22T01:57:50;19.60;;;18.50;;
8476;SDS011;4275;42.854;23.222;2022-07-22T02:00:17;18.23;;;17.23;;
8476;SDS011;4275;42.854;23.222;2022-07-22T02:02:45;19.40;;;18.30;;
8476;SDS011;4275;42.854;23.222;2022-07-22T02:05:12;19.10;;;18.00;;
8476;SDS011;4275;42.854;23.222;2022-07-22T02:07:39;20.30;;;19.15;;
8476;SDS011;4275;42.854;23.222;2022-07-22T02:10:07;18.45;;;17.45;;
8476;SDS011;4275;42.854;23.222;2022-07-22T02:12:36;18.58;;;17.58;;
8476;SDS011;4275;42.854;23.222;2022-07-22T02:15:03;20.27;;;19.17;;
8476;SDS011;4275;42.854;23.222;2022-07-22T02:17:32;18.27;;;17.27;;
8476;SDS011;4275;42.854;23.222;2022-07-22T02:19:59;18.40;;;17.40;;
8476;SDS011;4275;42.854;23.222;2022-07-22T02:22:26;17.80;;;16.80;;
8476;SDS011;4275;42.854;23.222;2022-07-22T02:24:53;19.10;;;18.10;;
8476;SDS011;4275;42.854;23.222;2022-07-22T02:27:20;17.65;;;16.75;;
8476;SDS011;4275;42.854;23.222;2022-07-22T02:29:49;17.67;;;16.77;;
8476;SDS011;4275;42.854;23.222;2022-07-22T02:32:16;18.00;;;17.10;;
8476;SDS011;4275;42.854;23.222;2022-07-22T02:34:43;18.67;;;17.70;;
8476;SDS011;4275;42.854;23.222;2022-07-22T02:37:10;17.83;;;16.92;;
8476;SDS011;4275;42.854;23.222;2022-07-22T02:39:37;17.45;;;16.55;;
8476;SDS011;4275;42.854;23.222;2022-07-22T02:42:04;17.48;;;16.58;;
8476;SDS011;4275;42.854;23.222;2022-07-22T02:44:31;17.20;;;16.40;;
8476;SDS011;4275;42.854;23.222;2022-07-22T02:46:59;17.95;;;17.05;;
8476;SDS011;4275;42.854;23.222;2022-07-22T02:49:27;17.08;;;16.27;;
8476;SDS011;4275;42.854;23.222;2022-07-22T02:51:54;16.83;;;16.02;;
8476;SDS011;4275;42.854;23.222;2022-07-22T02:54:21;17.10;;;16.30;;
8476;SDS011;4275;42.854;23.222;2022-07-22T02:56:48;16.63;;;15.93;;
8476;SDS011;4275;42.854;23.222;2022-07-22T02:59:15;17.23;;;16.33;;
8476;SDS011;4275;42.854;23.222;2022-07-22T03:01:42;17.40;;;16.50;;
8476;SDS011;4275;42.854;23.222;2022-07-22T03:04:10;17.48;;;16.58;;
8476;SDS011;4275;42.854;23.222;2022-07-22T03:06:37;16.73;;;15.93;;
8476;SDS011;4275;42.854;23.222;2022-07-22T03:09:04;16.70;;;15.90;;
8476;SDS011;4275;42.854;23.222;2022-07-22T03:11:31;16.48;;;15.68;;
8476;SDS011;4275;42.854;23.222;2022-07-22T03:13:58;16.65;;;15.85;;
8476;SDS011;4275;42.854;23.222;2022-07-22T03:16:25;16.48;;;15.68;;
8476;SDS011;4275;42.854;23.222;2022-07-22T03:18:52;17.15;;;16.27;;
8476;SDS011;4275;42.854;23.222;2022-07-22T03:21:21;16.80;;;16.00;;
8476;SDS011;4275;42.854;23.222;2022-07-22T03:23:48;16.48;;;15.68;;
8476;SDS011;4275;42.854;23.222;2022-07-22T03:26:18;16.80;;;16.00;;
8476;SDS011;4275;42.854;23.222;2022-07-22T03:28:46;16.90;;;16.10;;
8476;SDS011;4275;42.854;23.222;2022-07-22T03:31:13;16.63;;;15.82;;
8476;SDS011;4275;42.854;23.222;2022-07-22T03:33:41;16.55;;;15.75;;
8476;SDS011;4275;42.854;23.222;2022-07-22T03:36:09;16.88;;;16.08;;
8476;SDS011;4275;42.854;23.222;2022-07-22T03:38:37;16.70;;;15.90;;
8476;SDS011;4275;42.854;23.222;2022-07-22T03:41:04;16.73;;;15.93;;
8476;SDS011;4275;42.854;23.222;2022-07-22T03:43:31;16.80;;;16.00;;
8476;SDS011;4275;42.854;23.222;2022-07-22T03:45:58;16.17;;;15.38;;
8476;SDS011;4275;42.854;23.222;2022-07-22T03:48:25;16.58;;;15.77;;
8476;SDS011;4275;42.854;23.222;2022-07-22T03:50:52;16.90;;;16.05;;
8476;SDS011;4275;42.854;23.222;2022-07-22T03:53:19;17.02;;;16.23;;
8476;SDS011;4275;42.854;23.222;2022-07-22T03:55:48;17.63;;;16.73;;
8476;SDS011;4275;42.854;23.222;2022-07-22T03:58:16;18.05;;;17.05;;
8476;SDS011;4275;42.854;23.222;2022-07-22T04:00:43;17.73;;;16.75;;
8476;SDS011;4275;42.854;23.222;2022-07-22T04:03:10;18.15;;;17.15;;
8476;SDS011;4275;42.854;23.222;2022-07-22T04:05:37;18.15;;;17.15;;
8476;SDS011;4275;42.854;23.222;2022-07-22T04:08:04;18.33;;;17.27;;
8476;SDS011;4275;42.854;23.222;2022-07-22T04:10:32;18.40;;;17.30;;
8476;SDS011;4275;42.854;23.222;2022-07-22T04:13:00;17.88;;;16.88;;
8476;SDS011;4275;42.854;23.222;2022-07-22T04:15:27;18.10;;;17.10;;
8476;SDS011;4275;42.854;23.222;2022-07-22T04:17:54;18.35;;;17.35;;
8476;SDS011;4275;42.854;23.222;2022-07-22T04:20:21;18.27;;;17.23;;
8476;SDS011;4275;42.854;23.222;2022-07-22T04:22:48;18.50;;;17.40;;
8476;SDS011;4275;42.854;23.222;2022-07-22T04:25:15;18.67;;;17.48;;
8476;SDS011;4275;42.854;23.222;2022-07-22T04:27:43;19.17;;;18.08;;
8476;SDS011;4275;42.854;23.222;2022-07-22T04:30:11;19.15;;;17.95;;
8476;SDS011;4275;42.854;23.222;2022-07-22T04:32:38;20.35;;;19.15;;
8476;SDS011;4275;42.854;23.222;2022-07-22T04:35:06;19.30;;;18.10;;
8476;SDS011;4275;42.854;23.222;2022-07-22T04:37:33;19.88;;;18.67;;
8476;SDS011;4275;42.854;23.222;2022-07-22T04:40:00;19.55;;;18.35;;
8476;SDS011;4275;42.854;23.222;2022-07-22T04:42:27;19.38;;;18.17;;
8476;SDS011;4275;42.854;23.222;2022-07-22T04:44:54;19.70;;;18.50;;
8476;SDS011;4275;42.854;23.222;2022-07-22T04:47:22;19.95;;;18.75;;
8476;SDS011;4275;42.854;23.222;2022-07-22T04:49:50;20.33;;;19.02;;
8476;SDS011;4275;42.854;23.222;2022-07-22T04:52:18;20.30;;;19.10;;
8476;SDS011;4275;42.854;23.222;2022-07-22T04:54:45;20.85;;;19.55;;
8476;SDS011;4275;42.854;23.222;2022-07-22T04:57:12;21.13;;;19.83;;
8476;SDS011;4275;42.854;23.222;2022-07-22T04:59:39;20.67;;;19.38;;
8476;SDS011;4275;42.854;23.222;2022-07-22T05:02:06;21.33;;;19.92;;
8476;SDS011;4275;42.854;23.222;2022-07-22T05:04:34;21.38;;;19.98;;
8476;SDS011;4275;42.854;23.222;2022-07-22T05:07:01;22.20;;;20.70;;
8476;SDS011;4275;42.854;23.222;2022-07-22T05:09:29;22.60;;;21.10;;
8476;SDS011;4275;42.854;23.222;2022-07-22T05:11:56;21.77;;;20.35;;
8476;SDS011;4275;42.854;23.222;2022-07-22T05:14:23;21.58;;;20.17;;
8476;SDS011;4275;42.854;23.222;2022-07-22T05:16:50;21.15;;;19.75;;
8476;SDS011;4275;42.854;23.222;2022-07-22T05:19:17;21.30;;;19.90;;
8476;SDS011;4275;42.854;23.222;2022-07-22T05:21:46;21.40;;;20.00;;
8476;SDS011;4275;42.854;23.222;2022-07-22T05:24:13;21.42;;;20.02;;
8476;SDS011;4275;42.854;23.222;2022-07-22T05:26:40;21.23;;;19.83;;
8476;SDS011;4275;42.854;23.222;2022-07-22T05:29:07;21.33;;;19.92;;
8476;SDS011;4275;42.854;23.222;2022-07-22T05:31:34;21.65;;;20.25;;
8476;SDS011;4275;42.854;23.222;2022-07-22T05:34:01;20.67;;;19.27;;
8476;SDS011;4275;42.854;23.222;2022-07-22T05:36:28;20.40;;;19.10;;
8476;SDS011;4275;42.854;23.222;2022-07-22T05:38:57;20.23;;;18.83;;
8476;SDS011;4275;42.854;23.222;2022-07-22T05:41:24;20.38;;;19.08;;
8476;SDS011;4275;42.854;23.222;2022-07-22T05:43:51;21.38;;;19.98;;
8476;SDS011;4275;42.854;23.222;2022-07-22T05:46:18;20.98;;;19.58;;
8476;SDS011;4275;42.854;23.222;2022-07-22T05:48:45;20.80;;;19.40;;
8476;SDS011;4275;42.854;23.222;2022-07-22T05:51:13;21.15;;;19.85;;
8476;SDS011;4275;42.854;23.222;2022-07-22T05:53:41;21.20;;;19.80;;
8476;SDS011;4275;42.854;23.222;2022-07-22T05:56:10;20.90;;;19.55;;
8476;SDS011;4275;42.854;23.222;2022-07-22T05:58:37;21.20;;;19.90;;
8476;SDS011;4275;42.854;23.222;2022-07-22T06:01:04;21.05;;;19.65;;
8476;SDS011;4275;42.854;23.222;2022-07-22T06:03:31;20.15;;;18.75;;
8476;SDS011;4275;42.854;23.222;2022-07-22T06:05:59;20.55;;;19.15;;
8476;SDS011;4275;42.854;23.222;2022-07-22T06:08:27;20.58;;;19.17;;
8476;SDS011;4275;42.854;23.222;2022-07-22T06:10:54;20.75;;;19.35;;
8476;SDS011;4275;42.854;23.222;2022-07-22T06:13:24;20.30;;;19.00;;
8476;SDS011;4275;42.854;23.222;2022-07-22T06:15:51;20.17;;;18.88;;
8476;SDS011;4275;42.854;23.222;2022-07-22T06:18:19;19.90;;;18.60;;
8476;SDS011;4275;42.854;23.222;2022-07-22T06:20:45;20.65;;;19.25;;
8476;SDS011;4275;42.854;23.222;2022-07-22T06:23:13;20.52;;;19.13;;
8476;SDS011;4275;42.854;23.222;2022-07-22T06:25:40;20.52;;;19.23;;
8476;SDS011;4275;42.854;23.222;2022-07-22T06:28:07;20.08;;;18.77;;
8476;SDS011;4275;42.854;23.222;2022-07-22T06:30:36;20.40;;;19.00;;
8476;SDS011;4275;42.854;23.222;2022-07-22T06:33:04;20.95;;;19.55;;
8476;SDS011;4275;42.854;23.222;2022-07-22T06:35:31;20.40;;;19.10;;
8476;SDS011;4275;42.854;23.222;2022-07-22T06:37:58;20.35;;;19.05;;
8476;SDS011;4275;42.854;23.222;2022-07-22T06:40:25;20.60;;;19.30;;
8476;SDS011;4275;42.854;23.222;2022-07-22T06:42:52;20.63;;;19.33;;
8476;SDS011;4275;42.854;23.222;2022-07-22T06:45:19;20.50;;;19.20;;
8476;SDS011;4275;42.854;23.222;2022-07-22T06:47:48;20.77;;;19.48;;
8476;SDS011;4275;42.854;23.222;2022-07-22T06:50:15;20.27;;;18.98;;
8476;SDS011;4275;42.854;23.222;2022-07-22T06:52:42;20.50;;;19.20;;
8476;SDS011;4275;42.854;23.222;2022-07-22T06:55:09;20.70;;;19.40;;
8476;SDS011;4275;42.854;23.222;2022-07-22T06:57:37;20.50;;;19.20;;
8476;SDS011;4275;42.854;23.222;2022-07-22T07:00:05;20.10;;;18.90;;
8476;SDS011;4275;42.854;23.222;2022-07-22T07:02:33;20.00;;;18.80;;
8476;SDS011;4275;42.854;23.222;2022-07-22T07:05:02;20.10;;;18.85;;
8476;SDS011;4275;42.854;23.222;2022-07-22T07:07:29;20.73;;;19.42;;
8476;SDS011;4275;42.854;23.222;2022-07-22T07:09:57;20.42;;;19.13;;
8476;SDS011;4275;42.854;23.222;2022-07-22T07:12:24;21.20;;;19.90;;
8476;SDS011;4275;42.854;23.222;2022-07-22T07:14:51;21.10;;;19.80;;
8476;SDS011;4275;42.854;23.222;2022-07-22T07:17:18;20.27;;;18.98;;
8476;SDS011;4275;42.854;23.222;2022-07-22T07:19:45;20.08;;;18.77;;
8476;SDS011;4275;42.854;23.222;2022-07-22T07:22:13;20.25;;;18.95;;
8476;SDS011;4275;42.854;23.222;2022-07-22T07:24:41;20.02;;;18.73;;
8476;SDS011;4275;42.854;23.222;2022-07-22T07:27:08;20.45;;;19.15;;
8476;SDS011;4275;42.854;23.222;2022-07-22T07:29:35;20.70;;;19.40;;
8476;SDS011;4275;42.854;23.222;2022-07-22T07:32:03;20.85;;;19.55;;
8476;SDS011;4275;42.854;23.222;2022-07-22T07:34:30;21.05;;;19.65;;
8476;SDS011;4275;42.854;23.222;2022-07-22T07:36:57;20.42;;;19.10;;
8476;SDS011;4275;42.854;23.222;2022-07-22T07:39:26;20.75;;;19.38;;
8476;SDS011;4275;42.854;23.222;2022-07-22T07:41:53;20.63;;;19.33;;
8476;SDS011;4275;42.854;23.222;2022-07-22T07:44:20;21.30;;;19.92;;
8476;SDS011;4275;42.854;23.222;2022-07-22T07:46:47;20.48;;;19.17;;
8476;SDS011;4275;42.854;23.222;2022-07-22T07:49:14;21.00;;;19.60;;
8476;SDS011;4275;42.854;23.222;2022-07-22T07:51:41;20.50;;;19.20;;
8476;SDS011;4275;42.854;23.222;2022-07-22T07:54:08;21.35;;;19.95;;
8476;SDS011;4275;42.854;23.222;2022-07-22T07:56:37;19.95;;;18.75;;
8476;SDS011;4275;42.854;23.222;2022-07-22T07:59:04;20.60;;;19.35;;
8476;SDS011;4275;42.854;23.222;2022-07-22T08:01:31;21.23;;;19.92;;
8476;SDS011;4275;42.854;23.222;2022-07-22T08:03:58;21.13;;;19.83;;
8476;SDS011;4275;42.854;23.222;2022-07-22T08:06:25;20.65;;;19.35;;
8476;SDS011;4275;42.854;23.222;2022-07-22T08:08:52;20.73;;;19.42;;
8476;SDS011;4275;42.854;23.222;2022-07-22T08:11:19;20.45;;;19.15;;
8476;SDS011;4275;42.854;23.222;2022-07-22T08:13:48;20.77;;;19.48;;
8476;SDS011;4275;42.854;23.222;2022-07-22T08:16:15;20.58;;;19.27;;
8476;SDS011;4275;42.854;23.222;2022-07-22T08:18:42;20.88;;;19.58;;
8476;SDS011;4275;42.854;23.222;2022-07-22T08:21:09;20.95;;;19.63;;
8476;SDS011;4275;42.854;23.222;2022-07-22T08:23:36;21.42;;;19.92;;
8476;SDS011;4275;42.854;23.222;2022-07-22T08:26:03;20.35;;;19.05;;
8476;SDS011;4275;42.854;23.222;2022-07-22T08:28:31;20.00;;;18.70;;
8476;SDS011;4275;42.854;23.222;2022-07-22T08:30:59;21.10;;;19.70;;
8476;SDS011;4275;42.854;23.222;2022-07-22T08:33:26;20.40;;;19.10;;
8476;SDS011;4275;42.854;23.222;2022-07-22T08:35:53;20.70;;;19.40;;
8476;SDS011;4275;42.854;23.222;2022-07-22T08:38:20;20.42;;;19.13;;
8476;SDS011;4275;42.854;23.222;2022-07-22T08:40:47;20.92;;;19.63;;
8476;SDS011;4275;42.854;23.222;2022-07-22T08:43:15;21.73;;;20.33;;
8476;SDS011;4275;42.854;23.222;2022-07-22T08:45:42;20.20;;;18.90;;
8476;SDS011;4275;42.854;23.222;2022-07-22T08:48:11;20.17;;;18.88;;
8476;SDS011;4275;42.854;23.222;2022-07-22T08:50:38;20.13;;;18.85;;
8476;SDS011;4275;42.854;23.222;2022-07-22T08:53:08;20.38;;;19.08;;
8476;SDS011;4275;42.854;23.222;2022-07-22T08:55:39;20.40;;;19.10;;
8476;SDS011;4275;42.854;23.222;2022-07-22T08:58:07;20.40;;;19.10;;
8476;SDS011;4275;42.854;23.222;2022-07-22T09:00:34;20.45;;;19.15;;
8476;SDS011;4275;42.854;23.222;2022-07-22T09:03:01;20.67;;;19.38;;
8476;SDS011;4275;42.854;23.222;2022-07-22T09:05:47;20.65;;;19.35;;
8476;SDS011;4275;42.854;23.222;2022-07-22T09:08:15;20.60;;;19.30;;
8476;SDS011;4275;42.854;23.222;2022-07-22T09:10:42;20.73;;;19.42;;
8476;SDS011;4275;42.854;23.222;2022-07-22T09:13:10;20.35;;;19.05;;
8476;SDS011;4275;42.854;23.222;2022-07-22T09:15:38;20.52;;;19.23;;
8476;SDS011;4275;42.854;23.222;2022-07-22T09:18:11;21.17;;;19.77;;
8476;SDS011;4275;42.854;23.222;2022-07-22T09:20:40;20.88;;;19.48;;
8476;SDS011;4275;42.854;23.222;2022-07-22T09:23:09;20.55;;;19.25;;
8476;SDS011;4275;42.854;23.222;2022-07-22T09:25:38;21.70;;;20.30;;
8476;SDS011;4275;42.854;23.222;2022-07-22T09:28:09;20.95;;;19.55;;
8476;SDS011;4275;42.854;23.222;2022-07-22T09:30:40;21.17;;;19.83;;
8476;SDS011;4275;42.854;23.222;2022-07-22T09:33:13;21.50;;;20.10;;
8476;SDS011;4275;42.854;23.222;2022-07-22T09:35:42;21.33;;;19.92;;
8476;SDS011;4275;42.854;23.222;2022-07-22T09:38:10;21.08;;;19.67;;
8476;SDS011;4275;42.854;23.222;2022-07-22T09:40:39;21.55;;;20.15;;
8476;SDS011;4275;42.854;23.222;2022-07-22T09:43:08;21.75;;;20.35;;
8476;SDS011;4275;42.854;23.222;2022-07-22T09:45:43;21.60;;;20.20;;
8476;SDS011;4275;42.854;23.222;2022-07-22T09:48:13;21.25;;;19.85;;
8476;SDS011;4275;42.854;23.222;2022-07-22T09:50:41;21.55;;;20.15;;
8476;SDS011;4275;42.854;23.222;2022-07-22T09:53:08;21.23;;;19.83;;
8476;SDS011;4275;42.854;23.222;2022-07-22T09:55:35;21.58;;;20.17;;
8476;SDS011;4275;42.854;23.222;2022-07-22T09:58:05;21.85;;;20.45;;
8476;SDS011;4275;42.854;23.222;2022-07-22T10:00:34;24.15;;;22.35;;
8476;SDS011;4275;42.854;23.222;2022-07-22T10:03:03;21.40;;;20.00;;
8476;SDS011;4275;42.854;23.222;2022-07-22T10:05:32;20.75;;;19.35;;
8476;SDS011;4275;42.854;23.222;2022-07-22T10:08:03;20.67;;;19.27;;
8476;SDS011;4275;42.854;23.222;2022-07-22T10:10:31;20.80;;;19.40;;
8476;SDS011;4275;42.854;23.222;2022-07-22T10:13:00;21.23;;;19.83;;
8476;SDS011;4275;42.854;23.222;2022-07-22T10:15:29;21.27;;;19.88;;
8476;SDS011;4275;42.854;23.222;2022-07-22T10:17:57;20.70;;;19.30;;
8476;SDS011;4275;42.854;23.222;2022-07-22T10:20:27;20.95;;;19.65;;
8476;SDS011;4275;42.854;23.222;2022-07-22T10:22:56;21.30;;;19.90;;
8476;SDS011;4275;42.854;23.222;2022-07-22T10:25:26;20.98;;;19.58;;
8476;SDS011;4275;42.854;23.222;2022-07-22T10:27:56;21.42;;;20.02;;
8476;SDS011;4275;42.854;23.222;2022-07-22T10:30:25;21.60;;;20.20;;
8476;SDS011;4275;42.854;23.222;2022-07-22T10:33:03;20.52;;;19.17;;
8476;SDS011;4275;42.854;23.222;2022-07-22T10:35:32;21.15;;;19.75;;
8476;SDS011;4275;42.854;23.222;2022-07-22T10:38:01;21.60;;;20.20;;
8476;SDS011;4275;42.854;23.222;2022-07-22T10:40:33;21.67;;;20.27;;
8476;SDS011;4275;42.854;23.222;2022-07-22T10:43:14;21.58;;;20.17;;
8476;SDS011;4275;42.854;23.222;2022-07-22T10:45:44;20.60;;;19.30;;
8476;SDS011;4275;42.854;23.222;2022-07-22T10:48:13;20.90;;;19.60;;
8476;SDS011;4275;42.854;23.222;2022-07-22T10:50:43;21.20;;;19.85;;
8476;SDS011;4275;42.854;23.222;2022-07-22T10:53:12;21.05;;;19.75;;
8476;SDS011;4275;42.854;23.222;2022-07-22T11:01:20;22.13;;;20.73;;
8476;SDS011;4275;42.854;23.222;2022-07-22T11:03:49;22.00;;;20.60;;
8476;SDS011;4275;42.854;23.222;2022-07-22T11:06:18;21.23;;;19.83;;
8476;SDS011;4275;42.854;23.222;2022-07-22T11:08:49;21.50;;;20.10;;
8476;SDS011;4275;42.854;23.222;2022-07-22T11:11:18;21.75;;;20.35;;
8476;SDS011;4275;42.854;23.222;2022-07-22T11:13:59;20.90;;;19.60;;
8476;SDS011;4275;42.854;23.222;2022-07-22T11:16:26;20.70;;;19.40;;
8476;SDS011;4275;42.854;23.222;2022-07-22T11:18:55;20.73;;;19.42;;
8476;SDS011;4275;42.854;23.222;2022-07-22T11:21:24;21.02;;;19.70;;
8476;SDS011;4275;42.854;23.222;2022-07-22T11:23:53;20.92;;;19.52;;
8476;SDS011;4275;42.854;23.222;2022-07-22T11:26:24;21.08;;;19.75;;
8476;SDS011;4275;42.854;23.222;2022-07-22T11:28:58;21.25;;;19.85;;
8476;SDS011;4275;42.854;23.222;2022-07-22T11:31:25;20.83;;;19.52;;
8476;SDS011;4275;42.854;23.222;2022-07-22T11:33:56;20.50;;;19.20;;
8476;SDS011;4275;42.854;23.222;2022-07-22T11:36:32;20.27;;;18.98;;
8476;SDS011;4275;42.854;23.222;2022-07-22T11:39:00;21.02;;;19.65;;
8476;SDS011;4275;42.854;23.222;2022-07-22T11:41:29;20.65;;;19.35;;
8476;SDS011;4275;42.854;23.222;2022-07-22T11:43:57;20.42;;;19.05;;
8476;SDS011;4275;42.854;23.222;2022-07-22T11:46:25;20.77;;;19.48;;
8476;SDS011;4275;42.854;23.222;2022-07-22T11:48:54;21.10;;;19.75;;
8476;SDS011;4275;42.854;23.222;2022-07-22T11:51:27;21.13;;;19.83;;
8476;SDS011;4275;42.854;23.222;2022-07-22T11:53:55;21.20;;;19.85;;
8476;SDS011;4275;42.854;23.222;2022-07-22T11:56:23;20.77;;;19.45;;
8476;SDS011;4275;42.854;23.222;2022-07-22T11:58:52;21.23;;;19.83;;
8476;SDS011;4275;42.854;23.222;2022-07-22T12:01:21;20.88;;;19.58;;
8476;SDS011;4275;42.854;23.222;2022-07-22T12:03:50;20.60;;;19.30;;
8476;SDS011;4275;42.854;23.222;2022-07-22T12:06:20;21.05;;;19.65;;
8476;SDS011;4275;42.854;23.222;2022-07-22T12:08:48;21.05;;;19.75;;
8476;SDS011;4275;42.854;23.222;2022-07-22T12:11:18;20.67;;;19.38;;
8476;SDS011;4275;42.854;23.222;2022-07-22T12:13:48;20.95;;;19.55;;
8476;SDS011;4275;42.854;23.222;2022-07-22T12:16:19;20.58;;;19.27;;
8476;SDS011;4275;42.854;23.222;2022-07-22T12:18:52;20.85;;;19.55;;
8476;SDS011;4275;42.854;23.222;2022-07-22T12:21:21;20.50;;;19.20;;
8476;SDS011;4275;42.854;23.222;2022-07-22T12:23:52;20.58;;;19.27;;
8476;SDS011;4275;42.854;23.222;2022-07-22T12:29:17;20.33;;;19.02;;
8476;SDS011;4275;42.854;23.222;2022-07-22T12:31:48;20.17;;;18.88;;
8476;SDS011;4275;42.854;23.222;2022-07-22T12:34:17;20.15;;;18.85;;
8476;SDS011;4275;42.854;23.222;2022-07-22T12:36:55;20.00;;;18.70;;
8476;SDS011;4275;42.854;23.222;2022-07-22T12:39:23;20.75;;;19.45;;
8476;SDS011;4275;42.854;23.222;2022-07-22T12:41:51;22.35;;;20.95;;
8476;SDS011;4275;42.854;23.222;2022-07-22T12:44:19;22.05;;;20.65;;
8476;SDS011;4275;42.854;23.222;2022-07-22T12:46:50;22.52;;;21.17;;
8476;SDS011;4275;42.854;23.222;2022-07-22T12:49:19;21.92;;;20.63;;
8476;SDS011;4275;42.854;23.222;2022-07-22T12:52:07;19.83;;;18.63;;
8476;SDS011;4275;42.854;23.222;2022-07-22T12:54:36;20.63;;;19.35;;
8476;SDS011;4275;42.854;23.222;2022-07-22T12:57:05;20.92;;;19.63;;
8476;SDS011;4275;42.854;23.222;2022-07-22T12:59:32;21.73;;;20.33;;
8476;SDS011;4275;42.854;23.222;2022-07-22T13:02:01;21.45;;;20.05;;
8476;SDS011;4275;42.854;23.222;2022-07-22T13:04:29;21.85;;;20.45;;
8476;SDS011;4275;42.854;23.222;2022-07-22T13:06:56;22.27;;;20.88;;
8476;SDS011;4275;42.854;23.222;2022-07-22T13:09:23;22.60;;;21.20;;
8476;SDS011;4275;42.854;23.222;2022-07-22T13:11:50;22.48;;;21.08;;
8476;SDS011;4275;42.854;23.222;2022-07-22T13:14:17;21.98;;;20.58;;
8476;SDS011;4275;42.854;23.222;2022-07-22T13:16:44;23.52;;;22.13;;
8476;SDS011;4275;42.854;23.222;2022-07-22T13:19:13;22.50;;;21.15;;
8476;SDS011;4275;42.854;23.222;2022-07-22T13:21:40;22.63;;;21.23;;
8476;SDS011;4275;42.854;23.222;2022-07-22T13:24:07;21.90;;;20.55;;
8476;SDS011;4275;42.854;23.222;2022-07-22T13:26:35;23.30;;;21.80;;
8476;SDS011;4275;42.854;23.222;2022-07-22T13:29:02;22.13;;;20.73;;
8476;SDS011;4275;42.854;23.222;2022-07-22T13:31:29;22.63;;;21.23;;
8476;SDS011;4275;42.854;23.222;2022-07-22T13:33:57;22.35;;;20.92;;
8476;SDS011;4275;42.854;23.222;2022-07-22T13:36:25;22.30;;;20.90;;
8476;SDS011;4275;42.854;23.222;2022-07-22T13:38:53;22.50;;;21.10;;
8476;SDS011;4275;42.854;23.222;2022-07-22T13:41:20;22.90;;;21.50;;
8476;SDS011;4275;42.854;23.222;2022-07-22T13:43:47;22.50;;;21.10;;
8476;SDS011;4275;42.854;23.222;2022-07-22T13:46:16;21.80;;;20.40;;
8476;SDS011;4275;42.854;23.222;2022-07-22T13:48:44;22.63;;;21.23;;
8476;SDS011;4275;42.854;23.222;2022-07-22T13:51:11;22.75;;;21.25;;
8476;SDS011;4275;42.854;23.222;2022-07-22T13:53:41;22.13;;;20.65;;
8476;SDS011;4275;42.854;23.222;2022-07-22T13:56:08;21.92;;;20.48;;
8476;SDS011;4275;42.854;23.222;2022-07-22T13:58:37;21.77;;;20.38;;
8476;SDS011;4275;42.854;23.222;2022-07-22T14:01:06;22.60;;;21.10;;
8476;SDS011;4275;42.854;23.222;2022-07-22T14:03:33;22.58;;;21.08;;
8476;SDS011;4275;42.854;23.222;2022-07-22T14:06:01;22.27;;;20.88;;
8476;SDS011;4275;42.854;23.222;2022-07-22T14:08:28;22.20;;;20.80;;
8476;SDS011;4275;42.854;23.222;2022-07-22T14:10:57;22.30;;;20.90;;
8476;SDS011;4275;42.854;23.222;2022-07-22T14:13:24;22.13;;;20.73;;
8476;SDS011;4275;42.854;23.222;2022-07-22T14:15:51;22.13;;;20.73;;
8476;SDS011;4275;42.854;23.222;2022-07-22T14:18:18;22.63;;;21.13;;
8476;SDS011;4275;42.854;23.222;2022-07-22T14:20:45;21.83;;;20.42;;
8476;SDS011;4275;42.854;23.222;2022-07-22T14:23:12;22.35;;;20.95;;
8476;SDS011;4275;42.854;23.222;2022-07-22T14:25:41;22.27;;;20.88;;
8476;SDS011;4275;42.854;23.222;2022-07-22T14:28:10;22.77;;;21.38;;
8476;SDS011;4275;42.854;23.222;2022-07-22T14:30:37;21.80;;;20.40;;
8476;SDS011;4275;42.854;23.222;2022-07-22T14:33:04;22.73;;;21.33;;
8476;SDS011;4275;42.854;23.222;2022-07-22T14:35:31;22.35;;;20.95;;
8476;SDS011;4275;42.854;23.222;2022-07-22T14:37:59;22.13;;;20.73;;
8476;SDS011;4275;42.854;23.222;2022-07-22T14:40:27;22.45;;;21.05;;
8476;SDS011;4275;42.854;23.222;2022-07-22T14:42:54;22.08;;;20.67;;
8476;SDS011;4275;42.854;23.222;2022-07-22T14:45:24;22.63;;;21.23;;
8476;SDS011;4275;42.854;23.222;2022-07-22T14:47:51;21.98;;;20.58;;